sensor_id;sensor_type;location;lat;lon;timestamp;temperature;humidity
33837;DHT22;20140;49.356;8.812;2023-09-30T00:02:21;16.80;99.90
33837;DHT22;20140;49.356;8.812;2023-09-30T00:04:47;16.80;99.90
33837;DHT22;20140;49.356;8.812;2023-09-30T00:07:12;16.80;99.90
33837;DHT22;20140;49.356;8.812;2023-09-30T00:09:38;16.70;99.90
33837;DHT22;20140;49.356;8.812;2023-09-30T00:12:03;16.60;99.90
33837;DHT22;20140;49.356;8.812;2023-09-30T00:14:29;16.60;99.90
33837;DHT22;20140;49.356;8.812;2023-09-30T00:16:54;16.40;99.90
33837;DHT22;20140;49.356;8.812;2023-09-30T00:19:20;16.40;99.90
33837;DHT22;20140;49.356;8.812;2023-09-30T00:21:48;16.40;99.90
33837;DHT22;20140;49.356;8.812;2023-09-30T00:24:13;16.40;99.90
33837;DHT22;20140;49.356;8.812;2023-09-30T00:26:39;16.30;99.90
33837;DHT22;20140;49.356;8.812;2023-09-30T00:29:04;16.30;99.90
33837;DHT22;20140;49.356;8.812;2023-09-30T00:31:30;16.30;99.90
33837;DHT22;20140;49.356;8.812;2023-09-30T00:33:56;16.20;99.90
33837;DHT22;20140;49.356;8.812;2023-09-30T00:36:21;16.20;99.90
33837;DHT22;20140;49.356;8.812;2023-09-30T00:38:47;16.10;99.90
33837;DHT22;20140;49.356;8.812;2023-09-30T00:41:12;16.10;99.90
33837;DHT22;20140;49.356;8.812;2023-09-30T00:43:38;16.10;99.90
33837;DHT22;20140;49.356;8.812;2023-09-30T00:46:06;16.20;99.90
33837;DHT22;20140;49.356;8.812;2023-09-30T00:48:39;16.20;99.90
33837;DHT22;20140;49.356;8.812;2023-09-30T00:51:04;16.30;99.90
33837;DHT22;20140;49.356;8.812;2023-09-30T00:53:30;16.40;99.90
33837;DHT22;20140;49.356;8.812;2023-09-30T00:55:56;16.40;99.90
33837;DHT22;20140;49.356;8.812;2023-09-30T00:58:22;16.40;99.90
33837;DHT22;20140;49.356;8.812;2023-09-30T01:00:51;16.40;99.90
33837;DHT22;20140;49.356;8.812;2023-09-30T01:03:17;16.30;99.90
33837;DHT22;20140;49.356;8.812;2023-09-30T01:05:42;16.40;99.90
33837;DHT22;20140;49.356;8.812;2023-09-30T01:08:08;16.40;99.90
33837;DHT22;20140;49.356;8.812;2023-09-30T01:10:33;16.30;99.90
33837;DHT22;20140;49.356;8.812;2023-09-30T01:12:59;16.20;99.90
33837;DHT22;20140;49.356;8.812;2023-09-30T01:15:24;16.10;99.90
33837;DHT22;20140;49.356;8.812;2023-09-30T01:17:50;16.10;99.90
33837;DHT22;20140;49.356;8.812;2023-09-30T01:20:15;16.10;99.90
33837;DHT22;20140;49.356;8.812;2023-09-30T01:22:47;16.00;99.90
33837;DHT22;20140;49.356;8.812;2023-09-30T01:25:12;16.00;99.90
33837;DHT22;20140;49.356;8.812;2023-09-30T01:27:38;16.00;99.90
33837;DHT22;20140;49.356;8.812;2023-09-30T01:30:03;16.10;99.90
33837;DHT22;20140;49.356;8.812;2023-09-30T01:32:29;16.10;99.90
33837;DHT22;20140;49.356;8.812;2023-09-30T01:34:54;16.00;99.90
33837;DHT22;20140;49.356;8.812;2023-09-30T01:37:20;15.90;99.90
33837;DHT22;20140;49.356;8.812;2023-09-30T01:39:45;16.00;99.90
33837;DHT22;20140;49.356;8.812;2023-09-30T01:42:11;15.90;99.90
33837;DHT22;20140;49.356;8.812;2023-09-30T01:44:36;15.90;99.90
33837;DHT22;20140;49.356;8.812;2023-09-30T01:47:02;15.80;99.90
33837;DHT22;20140;49.356;8.812;2023-09-30T01:49:27;15.80;99.90
33837;DHT22;20140;49.356;8.812;2023-09-30T01:51:53;15.80;99.90
33837;DHT22;20140;49.356;8.812;2023-09-30T01:54:18;15.90;99.90
33837;DHT22;20140;49.356;8.812;2023-09-30T01:56:44;15.80;99.90
33837;DHT22;20140;49.356;8.812;2023-09-30T01:59:09;15.80;99.90
33837;DHT22;20140;49.356;8.812;2023-09-30T02:01:35;15.70;99.90
33837;DHT22;20140;49.356;8.812;2023-09-30T02:04:00;15.70;99.90
33837;DHT22;20140;49.356;8.812;2023-09-30T02:06:25;15.70;99.90
33837;DHT22;20140;49.356;8.812;2023-09-30T02:08:51;15.60;99.90
33837;DHT22;20140;49.356;8.812;2023-09-30T02:11:17;15.70;99.90
33837;DHT22;20140;49.356;8.812;2023-09-30T02:13:42;15.70;99.90
33837;DHT22;20140;49.356;8.812;2023-09-30T02:16:13;15.70;99.90
33837;DHT22;20140;49.356;8.812;2023-09-30T02:18:42;15.80;99.90
33837;DHT22;20140;49.356;8.812;2023-09-30T02:21:09;15.80;99.90
33837;DHT22;20140;49.356;8.812;2023-09-30T02:23:34;15.70;99.90
33837;DHT22;20140;49.356;8.812;2023-09-30T02:26:01;15.60;99.90
33837;DHT22;20140;49.356;8.812;2023-09-30T02:28:27;15.60;99.90
33837;DHT22;20140;49.356;8.812;2023-09-30T02:30:52;15.60;99.90
33837;DHT22;20140;49.356;8.812;2023-09-30T02:33:18;15.60;99.90
33837;DHT22;20140;49.356;8.812;2023-09-30T02:35:44;15.40;99.90
33837;DHT22;20140;49.356;8.812;2023-09-30T02:38:11;15.30;99.90
33837;DHT22;20140;49.356;8.812;2023-09-30T02:40:36;15.30;99.90
33837;DHT22;20140;49.356;8.812;2023-09-30T02:43:02;15.30;99.90
33837;DHT22;20140;49.356;8.812;2023-09-30T02:45:27;15.30;99.90
33837;DHT22;20140;49.356;8.812;2023-09-30T02:47:53;15.30;99.90
33837;DHT22;20140;49.356;8.812;2023-09-30T02:50:18;15.20;99.90
33837;DHT22;20140;49.356;8.812;2023-09-30T02:52:44;15.20;99.90
33837;DHT22;20140;49.356;8.812;2023-09-30T02:55:10;15.00;99.90
33837;DHT22;20140;49.356;8.812;2023-09-30T02:57:35;15.10;99.90
33837;DHT22;20140;49.356;8.812;2023-09-30T03:00:02;15.00;99.90
33837;DHT22;20140;49.356;8.812;2023-09-30T03:02:37;14.90;99.90
33837;DHT22;20140;49.356;8.812;2023-09-30T03:05:02;14.90;99.90
33837;DHT22;20140;49.356;8.812;2023-09-30T03:07:29;15.00;99.90
33837;DHT22;20140;49.356;8.812;2023-09-30T03:09:55;15.00;99.90
33837;DHT22;20140;49.356;8.812;2023-09-30T03:12:20;14.90;99.90
33837;DHT22;20140;49.356;8.812;2023-09-30T03:14:46;14.80;99.90
33837;DHT22;20140;49.356;8.812;2023-09-30T03:17:11;14.90;99.90
33837;DHT22;20140;49.356;8.812;2023-09-30T03:19:37;14.70;99.90
33837;DHT22;20140;49.356;8.812;2023-09-30T03:22:02;14.60;99.90
33837;DHT22;20140;49.356;8.812;2023-09-30T03:24:30;14.50;99.90
33837;DHT22;20140;49.356;8.812;2023-09-30T03:26:56;14.40;99.90
33837;DHT22;20140;49.356;8.812;2023-09-30T03:29:23;14.40;99.90
33837;DHT22;20140;49.356;8.812;2023-09-30T03:31:48;14.40;99.90
33837;DHT22;20140;49.356;8.812;2023-09-30T03:34:14;14.30;99.90
33837;DHT22;20140;49.356;8.812;2023-09-30T03:36:41;14.30;99.90
33837;DHT22;20140;49.356;8.812;2023-09-30T03:39:07;14.20;99.90
33837;DHT22;20140;49.356;8.812;2023-09-30T03:41:33;14.10;99.90
33837;DHT22;20140;49.356;8.812;2023-09-30T03:44:02;14.20;99.90
33837;DHT22;20140;49.356;8.812;2023-09-30T03:46:27;14.10;99.90
33837;DHT22;20140;49.356;8.812;2023-09-30T03:48:55;14.10;99.90
33837;DHT22;20140;49.356;8.812;2023-09-30T03:51:20;14.10;99.90
33837;DHT22;20140;49.356;8.812;2023-09-30T03:53:50;14.00;99.90
33837;DHT22;20140;49.356;8.812;2023-09-30T03:56:16;14.00;99.90
33837;DHT22;20140;49.356;8.812;2023-09-30T03:58:43;13.90;99.90
33837;DHT22;20140;49.356;8.812;2023-09-30T04:01:10;13.80;99.90
33837;DHT22;20140;49.356;8.812;2023-09-30T04:03:48;13.80;99.90
33837;DHT22;20140;49.356;8.812;2023-09-30T04:06:14;13.70;99.90
33837;DHT22;20140;49.356;8.812;2023-09-30T04:08:39;13.70;99.90
33837;DHT22;20140;49.356;8.812;2023-09-30T04:11:05;13.70;99.90
33837;DHT22;20140;49.356;8.812;2023-09-30T04:13:31;13.60;99.90
33837;DHT22;20140;49.356;8.812;2023-09-30T04:15:56;13.60;99.90
33837;DHT22;20140;49.356;8.812;2023-09-30T04:18:25;13.40;99.90
33837;DHT22;20140;49.356;8.812;2023-09-30T04:20:52;13.40;99.90
33837;DHT22;20140;49.356;8.812;2023-09-30T04:23:17;13.40;99.90
33837;DHT22;20140;49.356;8.812;2023-09-30T04:25:45;13.40;99.90
33837;DHT22;20140;49.356;8.812;2023-09-30T04:28:12;13.40;99.90
33837;DHT22;20140;49.356;8.812;2023-09-30T04:30:37;13.30;99.90
33837;DHT22;20140;49.356;8.812;2023-09-30T04:33:03;13.30;99.90
33837;DHT22;20140;49.356;8.812;2023-09-30T04:35:32;13.20;99.90
33837;DHT22;20140;49.356;8.812;2023-09-30T04:37:57;13.20;99.90
33837;DHT22;20140;49.356;8.812;2023-09-30T04:40:30;13.00;99.90
33837;DHT22;20140;49.356;8.812;2023-09-30T04:42:55;13.00;99.90
33837;DHT22;20140;49.356;8.812;2023-09-30T04:45:26;12.90;99.90
33837;DHT22;20140;49.356;8.812;2023-09-30T04:47:53;12.90;99.90
33837;DHT22;20140;49.356;8.812;2023-09-30T04:50:18;12.90;99.90
33837;DHT22;20140;49.356;8.812;2023-09-30T04:52:47;12.80;99.90
33837;DHT22;20140;49.356;8.812;2023-09-30T04:55:12;12.80;99.90
33837;DHT22;20140;49.356;8.812;2023-09-30T04:57:41;12.90;99.90
33837;DHT22;20140;49.356;8.812;2023-09-30T05:00:07;12.80;99.90
33837;DHT22;20140;49.356;8.812;2023-09-30T05:02:36;12.70;99.90
33837;DHT22;20140;49.356;8.812;2023-09-30T05:05:01;12.60;99.90
33837;DHT22;20140;49.356;8.812;2023-09-30T05:07:28;12.60;99.90
33837;DHT22;20140;49.356;8.812;2023-09-30T05:09:54;12.60;99.90
33837;DHT22;20140;49.356;8.812;2023-09-30T05:12:20;12.60;99.90
33837;DHT22;20140;49.356;8.812;2023-09-30T05:14:45;12.70;99.90
33837;DHT22;20140;49.356;8.812;2023-09-30T05:17:11;12.60;99.90
33837;DHT22;20140;49.356;8.812;2023-09-30T05:19:37;12.50;99.90
33837;DHT22;20140;49.356;8.812;2023-09-30T05:22:03;12.50;99.90
33837;DHT22;20140;49.356;8.812;2023-09-30T05:24:28;12.60;99.90
33837;DHT22;20140;49.356;8.812;2023-09-30T05:26:54;12.70;99.90
33837;DHT22;20140;49.356;8.812;2023-09-30T05:29:19;12.60;99.90
33837;DHT22;20140;49.356;8.812;2023-09-30T05:31:45;12.60;99.90
33837;DHT22;20140;49.356;8.812;2023-09-30T05:34:11;12.50;99.90
33837;DHT22;20140;49.356;8.812;2023-09-30T05:36:36;12.60;99.90
33837;DHT22;20140;49.356;8.812;2023-09-30T05:39:02;12.60;99.90
33837;DHT22;20140;49.356;8.812;2023-09-30T05:41:28;12.50;99.90
33837;DHT22;20140;49.356;8.812;2023-09-30T05:43:55;12.50;99.90
33837;DHT22;20140;49.356;8.812;2023-09-30T05:46:22;12.40;99.90
33837;DHT22;20140;49.356;8.812;2023-09-30T05:48:48;12.60;99.90
33837;DHT22;20140;49.356;8.812;2023-09-30T05:51:13;12.60;99.90
33837;DHT22;20140;49.356;8.812;2023-09-30T05:53:40;12.80;99.90
33837;DHT22;20140;49.356;8.812;2023-09-30T05:56:06;12.80;99.90
33837;DHT22;20140;49.356;8.812;2023-09-30T05:58:32;12.60;99.90
33837;DHT22;20140;49.356;8.812;2023-09-30T06:00:57;12.50;99.90
33837;DHT22;20140;49.356;8.812;2023-09-30T06:03:23;12.50;99.90
33837;DHT22;20140;49.356;8.812;2023-09-30T06:05:49;12.50;99.90
33837;DHT22;20140;49.356;8.812;2023-09-30T06:08:14;12.50;99.90
33837;DHT22;20140;49.356;8.812;2023-09-30T06:10:41;12.40;99.90
33837;DHT22;20140;49.356;8.812;2023-09-30T06:13:12;12.40;99.90
33837;DHT22;20140;49.356;8.812;2023-09-30T06:15:41;12.30;99.90
33837;DHT22;20140;49.356;8.812;2023-09-30T06:18:07;12.40;99.90
33837;DHT22;20140;49.356;8.812;2023-09-30T06:20:33;12.40;99.90
33837;DHT22;20140;49.356;8.812;2023-09-30T06:22:58;12.50;99.90
33837;DHT22;20140;49.356;8.812;2023-09-30T06:25:25;12.50;99.90
33837;DHT22;20140;49.356;8.812;2023-09-30T06:27:52;12.40;99.90
33837;DHT22;20140;49.356;8.812;2023-09-30T06:30:18;12.40;99.90
33837;DHT22;20140;49.356;8.812;2023-09-30T06:32:47;12.60;99.90
33837;DHT22;20140;49.356;8.812;2023-09-30T06:35:12;12.60;99.90
33837;DHT22;20140;49.356;8.812;2023-09-30T06:37:41;12.60;99.90
33837;DHT22;20140;49.356;8.812;2023-09-30T06:40:07;12.50;99.90
33837;DHT22;20140;49.356;8.812;2023-09-30T06:42:34;12.60;99.90
33837;DHT22;20140;49.356;8.812;2023-09-30T06:45:00;12.60;99.90
33837;DHT22;20140;49.356;8.812;2023-09-30T06:47:26;12.60;99.90
33837;DHT22;20140;49.356;8.812;2023-09-30T06:49:53;12.70;99.90
33837;DHT22;20140;49.356;8.812;2023-09-30T06:52:18;12.70;99.90
33837;DHT22;20140;49.356;8.812;2023-09-30T06:54:45;12.80;99.90
33837;DHT22;20140;49.356;8.812;2023-09-30T06:57:12;12.90;99.90
33837;DHT22;20140;49.356;8.812;2023-09-30T06:59:38;13.00;99.90
33837;DHT22;20140;49.356;8.812;2023-09-30T07:02:03;13.10;99.90
33837;DHT22;20140;49.356;8.812;2023-09-30T07:04:29;13.20;99.90
33837;DHT22;20140;49.356;8.812;2023-09-30T07:06:55;13.20;99.90
33837;DHT22;20140;49.356;8.812;2023-09-30T07:09:20;13.20;99.90
33837;DHT22;20140;49.356;8.812;2023-09-30T07:11:45;13.20;99.90
33837;DHT22;20140;49.356;8.812;2023-09-30T07:14:11;13.30;99.90
33837;DHT22;20140;49.356;8.812;2023-09-30T07:16:36;13.30;99.90
33837;DHT22;20140;49.356;8.812;2023-09-30T07:19:02;13.40;99.90
33837;DHT22;20140;49.356;8.812;2023-09-30T07:21:28;13.40;99.90
33837;DHT22;20140;49.356;8.812;2023-09-30T07:23:53;13.50;99.90
33837;DHT22;20140;49.356;8.812;2023-09-30T07:26:24;13.50;99.90
33837;DHT22;20140;49.356;8.812;2023-09-30T07:28:50;13.60;99.90
33837;DHT22;20140;49.356;8.812;2023-09-30T07:31:15;13.60;99.90
33837;DHT22;20140;49.356;8.812;2023-09-30T07:33:41;13.60;99.90
33837;DHT22;20140;49.356;8.812;2023-09-30T07:36:06;13.70;99.90
33837;DHT22;20140;49.356;8.812;2023-09-30T07:38:32;13.80;99.90
33837;DHT22;20140;49.356;8.812;2023-09-30T07:40:59;13.90;99.90
33837;DHT22;20140;49.356;8.812;2023-09-30T07:43:25;13.90;99.90
33837;DHT22;20140;49.356;8.812;2023-09-30T07:45:50;14.10;99.90
33837;DHT22;20140;49.356;8.812;2023-09-30T07:48:16;14.30;99.90
33837;DHT22;20140;49.356;8.812;2023-09-30T07:50:42;14.30;99.90
33837;DHT22;20140;49.356;8.812;2023-09-30T07:53:07;14.30;99.90
33837;DHT22;20140;49.356;8.812;2023-09-30T07:55:33;14.40;99.90
33837;DHT22;20140;49.356;8.812;2023-09-30T07:57:58;14.60;99.90
33837;DHT22;20140;49.356;8.812;2023-09-30T08:00:25;14.80;99.90
33837;DHT22;20140;49.356;8.812;2023-09-30T08:02:50;14.80;99.90
33837;DHT22;20140;49.356;8.812;2023-09-30T08:05:16;14.80;99.90
33837;DHT22;20140;49.356;8.812;2023-09-30T08:07:42;14.90;99.90
33837;DHT22;20140;49.356;8.812;2023-09-30T08:10:07;15.10;99.90
33837;DHT22;20140;49.356;8.812;2023-09-30T08:12:38;15.20;99.90
33837;DHT22;20140;49.356;8.812;2023-09-30T08:15:04;15.30;99.90
33837;DHT22;20140;49.356;8.812;2023-09-30T08:17:31;15.50;99.90
33837;DHT22;20140;49.356;8.812;2023-09-30T08:19:57;15.50;99.90
33837;DHT22;20140;49.356;8.812;2023-09-30T08:22:22;15.60;99.90
33837;DHT22;20140;49.356;8.812;2023-09-30T08:24:53;15.70;99.90
33837;DHT22;20140;49.356;8.812;2023-09-30T08:27:18;15.70;99.90
33837;DHT22;20140;49.356;8.812;2023-09-30T08:29:44;15.70;99.90
33837;DHT22;20140;49.356;8.812;2023-09-30T08:32:09;15.80;99.90
33837;DHT22;20140;49.356;8.812;2023-09-30T08:34:35;15.90;99.90
33837;DHT22;20140;49.356;8.812;2023-09-30T08:37:00;16.00;99.90
33837;DHT22;20140;49.356;8.812;2023-09-30T08:39:27;16.00;99.90
33837;DHT22;20140;49.356;8.812;2023-09-30T08:41:52;16.10;99.90
33837;DHT22;20140;49.356;8.812;2023-09-30T08:44:20;16.30;99.90
33837;DHT22;20140;49.356;8.812;2023-09-30T08:46:45;16.40;99.90
33837;DHT22;20140;49.356;8.812;2023-09-30T08:49:11;16.50;99.90
33837;DHT22;20140;49.356;8.812;2023-09-30T08:51:37;16.70;99.90
33837;DHT22;20140;49.356;8.812;2023-09-30T08:54:04;16.70;99.90
33837;DHT22;20140;49.356;8.812;2023-09-30T08:56:31;16.80;99.90
33837;DHT22;20140;49.356;8.812;2023-09-30T08:59:00;16.80;99.90
33837;DHT22;20140;49.356;8.812;2023-09-30T09:01:26;16.70;99.90
33837;DHT22;20140;49.356;8.812;2023-09-30T09:03:53;16.70;99.90
33837;DHT22;20140;49.356;8.812;2023-09-30T09:06:19;17.00;99.90
33837;DHT22;20140;49.356;8.812;2023-09-30T09:08:46;17.10;99.90
33837;DHT22;20140;49.356;8.812;2023-09-30T09:11:12;17.10;99.90
33837;DHT22;20140;49.356;8.812;2023-09-30T09:13:52;17.30;99.90
33837;DHT22;20140;49.356;8.812;2023-09-30T09:16:21;17.30;99.90
33837;DHT22;20140;49.356;8.812;2023-09-30T09:18:47;17.30;99.90
33837;DHT22;20140;49.356;8.812;2023-09-30T09:21:13;17.20;99.90
33837;DHT22;20140;49.356;8.812;2023-09-30T09:23:43;17.10;99.90
33837;DHT22;20140;49.356;8.812;2023-09-30T09:26:09;17.20;99.90
33837;DHT22;20140;49.356;8.812;2023-09-30T09:28:35;17.20;99.90
33837;DHT22;20140;49.356;8.812;2023-09-30T09:31:23;17.40;99.90
33837;DHT22;20140;49.356;8.812;2023-09-30T09:33:49;17.70;99.90
33837;DHT22;20140;49.356;8.812;2023-09-30T09:36:15;17.80;99.90
33837;DHT22;20140;49.356;8.812;2023-09-30T09:38:44;17.70;99.90
33837;DHT22;20140;49.356;8.812;2023-09-30T09:41:09;17.70;99.90
33837;DHT22;20140;49.356;8.812;2023-09-30T09:43:36;17.70;99.90
33837;DHT22;20140;49.356;8.812;2023-09-30T09:46:02;18.00;99.90
33837;DHT22;20140;49.356;8.812;2023-09-30T09:48:29;18.10;99.90
33837;DHT22;20140;49.356;8.812;2023-09-30T09:50:54;18.00;99.90
33837;DHT22;20140;49.356;8.812;2023-09-30T09:53:20;18.10;99.90
33837;DHT22;20140;49.356;8.812;2023-09-30T09:55:46;18.20;99.90
33837;DHT22;20140;49.356;8.812;2023-09-30T09:58:12;18.40;99.90
33837;DHT22;20140;49.356;8.812;2023-09-30T10:00:38;18.40;99.90
33837;DHT22;20140;49.356;8.812;2023-09-30T10:03:03;18.60;99.90
33837;DHT22;20140;49.356;8.812;2023-09-30T10:05:29;18.80;99.90
33837;DHT22;20140;49.356;8.812;2023-09-30T10:07:56;18.70;99.90
33837;DHT22;20140;49.356;8.812;2023-09-30T10:10:23;18.60;99.90
33837;DHT22;20140;49.356;8.812;2023-09-30T10:12:49;18.50;99.90
33837;DHT22;20140;49.356;8.812;2023-09-30T10:20:29;18.90;99.90
33837;DHT22;20140;49.356;8.812;2023-09-30T10:25:38;18.80;99.90
33837;DHT22;20140;49.356;8.812;2023-09-30T10:31:07;19.40;99.90
33837;DHT22;20140;49.356;8.812;2023-09-30T10:33:32;19.00;99.90
33837;DHT22;20140;49.356;8.812;2023-09-30T10:35:58;18.80;99.90
33837;DHT22;20140;49.356;8.812;2023-09-30T10:41:00;19.40;99.90
33837;DHT22;20140;49.356;8.812;2023-09-30T10:43:30;19.50;99.90
33837;DHT22;20140;49.356;8.812;2023-09-30T10:45:56;19.40;99.90
33837;DHT22;20140;49.356;8.812;2023-09-30T10:50:50;19.70;99.90
33837;DHT22;20140;49.356;8.812;2023-09-30T10:53:16;19.60;99.90
33837;DHT22;20140;49.356;8.812;2023-09-30T10:55:43;19.50;99.90
33837;DHT22;20140;49.356;8.812;2023-09-30T10:58:10;19.40;99.90
33837;DHT22;20140;49.356;8.812;2023-09-30T11:00:35;19.90;99.90
33837;DHT22;20140;49.356;8.812;2023-09-30T11:03:01;19.70;99.90
33837;DHT22;20140;49.356;8.812;2023-09-30T11:05:27;20.00;99.90
33837;DHT22;20140;49.356;8.812;2023-09-30T11:07:53;19.60;99.90
33837;DHT22;20140;49.356;8.812;2023-09-30T11:10:22;19.70;99.90
33837;DHT22;20140;49.356;8.812;2023-09-30T11:12:54;19.60;99.90
33837;DHT22;20140;49.356;8.812;2023-09-30T11:15:20;19.80;99.90
33837;DHT22;20140;49.356;8.812;2023-09-30T11:17:45;20.10;99.90
33837;DHT22;20140;49.356;8.812;2023-09-30T11:20:11;20.00;99.90
33837;DHT22;20140;49.356;8.812;2023-09-30T11:22:36;19.70;99.90
33837;DHT22;20140;49.356;8.812;2023-09-30T11:25:02;19.40;99.90
33837;DHT22;20140;49.356;8.812;2023-09-30T11:27:28;19.40;99.90
33837;DHT22;20140;49.356;8.812;2023-09-30T11:29:56;20.00;99.90
33837;DHT22;20140;49.356;8.812;2023-09-30T11:32:24;20.30;99.90
33837;DHT22;20140;49.356;8.812;2023-09-30T11:34:52;20.40;99.90
33837;DHT22;20140;49.356;8.812;2023-09-30T11:37:18;20.60;99.90
33837;DHT22;20140;49.356;8.812;2023-09-30T11:39:43;20.20;99.90
33837;DHT22;20140;49.356;8.812;2023-09-30T11:42:14;20.50;99.90
33837;DHT22;20140;49.356;8.812;2023-09-30T11:44:46;20.30;99.90
33837;DHT22;20140;49.356;8.812;2023-09-30T11:47:13;20.20;99.90
33837;DHT22;20140;49.356;8.812;2023-09-30T11:49:42;20.20;99.90
33837;DHT22;20140;49.356;8.812;2023-09-30T11:52:11;20.30;99.90
33837;DHT22;20140;49.356;8.812;2023-09-30T11:54:40;20.20;99.90
33837;DHT22;20140;49.356;8.812;2023-09-30T11:57:10;20.50;99.90
33837;DHT22;20140;49.356;8.812;2023-09-30T11:59:36;20.60;99.90
33837;DHT22;20140;49.356;8.812;2023-09-30T12:02:03;20.50;99.90
33837;DHT22;20140;49.356;8.812;2023-09-30T12:04:31;20.50;99.90
33837;DHT22;20140;49.356;8.812;2023-09-30T12:06:57;20.50;99.90
33837;DHT22;20140;49.356;8.812;2023-09-30T12:09:23;20.30;99.90
33837;DHT22;20140;49.356;8.812;2023-09-30T12:11:53;20.60;99.90
33837;DHT22;20140;49.356;8.812;2023-09-30T12:14:19;20.60;99.90
33837;DHT22;20140;49.356;8.812;2023-09-30T12:16:46;20.30;99.90
33837;DHT22;20140;49.356;8.812;2023-09-30T12:19:19;20.50;99.90
33837;DHT22;20140;49.356;8.812;2023-09-30T12:21:45;21.10;99.90
33837;DHT22;20140;49.356;8.812;2023-09-30T12:24:14;21.10;99.90
33837;DHT22;20140;49.356;8.812;2023-09-30T12:26:42;21.00;99.90
33837;DHT22;20140;49.356;8.812;2023-09-30T12:29:07;20.80;99.90
33837;DHT22;20140;49.356;8.812;2023-09-30T12:31:35;20.80;99.90
33837;DHT22;20140;49.356;8.812;2023-09-30T12:34:00;21.20;99.90
33837;DHT22;20140;49.356;8.812;2023-09-30T12:36:25;20.90;99.90
33837;DHT22;20140;49.356;8.812;2023-09-30T12:38:51;20.60;99.90
33837;DHT22;20140;49.356;8.812;2023-09-30T12:41:16;20.40;99.90
33837;DHT22;20140;49.356;8.812;2023-09-30T12:43:44;20.90;99.90
33837;DHT22;20140;49.356;8.812;2023-09-30T12:46:10;21.10;99.90
33837;DHT22;20140;49.356;8.812;2023-09-30T12:48:38;21.30;99.90
33837;DHT22;20140;49.356;8.812;2023-09-30T12:51:04;21.20;99.90
33837;DHT22;20140;49.356;8.812;2023-09-30T12:53:35;21.30;99.90
33837;DHT22;20140;49.356;8.812;2023-09-30T12:56:00;21.20;99.90
33837;DHT22;20140;49.356;8.812;2023-09-30T12:58:26;21.70;99.90
33837;DHT22;20140;49.356;8.812;2023-09-30T13:00:54;21.80;99.90
33837;DHT22;20140;49.356;8.812;2023-09-30T13:03:20;21.90;99.90
33837;DHT22;20140;49.356;8.812;2023-09-30T13:05:45;22.20;99.90
33837;DHT22;20140;49.356;8.812;2023-09-30T13:08:10;22.20;99.90
33837;DHT22;20140;49.356;8.812;2023-09-30T13:10:37;23.10;99.90
33837;DHT22;20140;49.356;8.812;2023-09-30T13:13:03;23.60;99.90
33837;DHT22;20140;49.356;8.812;2023-09-30T13:15:29;22.40;99.90
33837;DHT22;20140;49.356;8.812;2023-09-30T13:17:54;22.90;99.90
33837;DHT22;20140;49.356;8.812;2023-09-30T13:20:20;22.10;99.90
33837;DHT22;20140;49.356;8.812;2023-09-30T13:22:45;22.40;99.90
33837;DHT22;20140;49.356;8.812;2023-09-30T13:25:11;23.10;99.90
33837;DHT22;20140;49.356;8.812;2023-09-30T13:27:38;22.90;99.90
33837;DHT22;20140;49.356;8.812;2023-09-30T13:30:03;23.30;99.30
33837;DHT22;20140;49.356;8.812;2023-09-30T13:32:29;22.80;99.90
33837;DHT22;20140;49.356;8.812;2023-09-30T13:34:57;22.60;99.90
33837;DHT22;20140;49.356;8.812;2023-09-30T13:37:23;22.90;99.70
33837;DHT22;20140;49.356;8.812;2023-09-30T13:39:53;23.70;99.40
33837;DHT22;20140;49.356;8.812;2023-09-30T13:42:18;23.20;99.90
33837;DHT22;20140;49.356;8.812;2023-09-30T13:44:44;23.50;99.90
33837;DHT22;20140;49.356;8.812;2023-09-30T13:47:09;24.50;98.20
33837;DHT22;20140;49.356;8.812;2023-09-30T13:49:35;24.90;97.30
33837;DHT22;20140;49.356;8.812;2023-09-30T13:52:00;25.00;97.60
33837;DHT22;20140;49.356;8.812;2023-09-30T13:54:26;22.90;98.50
33837;DHT22;20140;49.356;8.812;2023-09-30T13:56:52;22.80;99.90
33837;DHT22;20140;49.356;8.812;2023-09-30T13:59:17;22.40;99.40
33837;DHT22;20140;49.356;8.812;2023-09-30T14:01:43;23.60;97.50
33837;DHT22;20140;49.356;8.812;2023-09-30T14:04:09;24.00;96.30
33837;DHT22;20140;49.356;8.812;2023-09-30T14:06:34;23.30;97.50
33837;DHT22;20140;49.356;8.812;2023-09-30T14:09:00;23.20;98.90
33837;DHT22;20140;49.356;8.812;2023-09-30T14:11:26;22.80;98.60
33837;DHT22;20140;49.356;8.812;2023-09-30T14:13:51;22.50;99.00
33837;DHT22;20140;49.356;8.812;2023-09-30T14:16:17;22.40;99.90
33837;DHT22;20140;49.356;8.812;2023-09-30T14:18:42;22.30;99.90
33837;DHT22;20140;49.356;8.812;2023-09-30T14:21:08;21.90;99.90
33837;DHT22;20140;49.356;8.812;2023-09-30T14:23:33;21.90;99.90
33837;DHT22;20140;49.356;8.812;2023-09-30T14:25:59;21.60;99.90
33837;DHT22;20140;49.356;8.812;2023-09-30T14:28:36;22.00;99.90
33837;DHT22;20140;49.356;8.812;2023-09-30T14:31:04;22.80;99.20
33837;DHT22;20140;49.356;8.812;2023-09-30T14:33:30;23.30;99.00
33837;DHT22;20140;49.356;8.812;2023-09-30T14:35:55;23.80;98.40
33837;DHT22;20140;49.356;8.812;2023-09-30T14:38:22;24.00;98.00
33837;DHT22;20140;49.356;8.812;2023-09-30T14:40:47;23.00;99.90
33837;DHT22;20140;49.356;8.812;2023-09-30T14:43:13;23.00;99.00
33837;DHT22;20140;49.356;8.812;2023-09-30T14:45:38;23.10;99.90
33837;DHT22;20140;49.356;8.812;2023-09-30T14:48:05;22.40;99.90
33837;DHT22;20140;49.356;8.812;2023-09-30T14:50:30;22.30;99.90
33837;DHT22;20140;49.356;8.812;2023-09-30T14:52:56;22.40;99.90
33837;DHT22;20140;49.356;8.812;2023-09-30T14:55:21;22.30;99.90
33837;DHT22;20140;49.356;8.812;2023-09-30T14:57:47;22.70;99.90
33837;DHT22;20140;49.356;8.812;2023-09-30T15:00:12;22.70;99.90
33837;DHT22;20140;49.356;8.812;2023-09-30T15:02:38;22.70;99.90
33837;DHT22;20140;49.356;8.812;2023-09-30T15:05:05;22.10;99.90
33837;DHT22;20140;49.356;8.812;2023-09-30T15:07:31;22.60;99.90
33837;DHT22;20140;49.356;8.812;2023-09-30T15:09:57;22.80;99.90
33837;DHT22;20140;49.356;8.812;2023-09-30T15:12:22;23.10;99.90
33837;DHT22;20140;49.356;8.812;2023-09-30T15:14:47;23.10;99.90
33837;DHT22;20140;49.356;8.812;2023-09-30T15:17:13;22.10;99.90
33837;DHT22;20140;49.356;8.812;2023-09-30T15:19:38;21.80;99.90
33837;DHT22;20140;49.356;8.812;2023-09-30T15:22:04;22.40;99.90
33837;DHT22;20140;49.356;8.812;2023-09-30T15:24:30;22.60;99.90
33837;DHT22;20140;49.356;8.812;2023-09-30T15:26:55;22.50;99.90
33837;DHT22;20140;49.356;8.812;2023-09-30T15:29:20;22.10;99.90
33837;DHT22;20140;49.356;8.812;2023-09-30T15:31:46;22.00;99.90
33837;DHT22;20140;49.356;8.812;2023-09-30T15:34:11;22.20;99.90
33837;DHT22;20140;49.356;8.812;2023-09-30T15:36:38;22.30;99.90
33837;DHT22;20140;49.356;8.812;2023-09-30T15:39:03;22.30;99.90
33837;DHT22;20140;49.356;8.812;2023-09-30T15:41:29;22.20;99.90